Time;durP1;ratioP1;P1;durP2;ratioP2;P2;SDS_P1;SDS_P2;PMS_P1;PMS_P2;Temp;Humidity;BMP_temperature;BMP_pressure;BME280_temperature;BME280_humidity;BME280_pressure;Samples;Min_cycle;Max_cycle;Signal;HPM_P1;HPM_P2
2021/04/04 00:01:41;;;;;;;;;;;3.40;94.20;;;;;;10486882;28;20414;-72
2021/04/04 00:06:43;;;;;;;;;;;3.40;93.80;;;;;;10488131;28;20031;-71
2021/04/04 00:11:44;;;;;;;;;;;3.40;94.20;;;;;;10488055;28;20011;-71
2021/04/04 00:16:45;;;;;;;;;;;3.30;94.50;;;;;;10486633;28;20007;-71
2021/04/04 00:21:46;;;;;;;;;;;3.00;95.30;;;;;;10486466;28;19955;-71
2021/04/04 00:26:48;;;;;;;;;;;3.00;97.00;;;;;;10487946;28;19925;-71
2021/04/04 00:31:49;;;;;;;;;;;3.00;97.00;;;;;;10473316;28;19924;-71
2021/04/04 00:36:51;;;;;;;;;;;2.90;98.10;;;;;;10486702;28;19928;-71
2021/04/04 00:41:52;;;;;;;;;;;2.90;98.40;;;;;;10487032;28;19947;-71
2021/04/04 00:46:53;;;;;;;;;;;2.90;99.30;;;;;;10484430;28;19928;-71
2021/04/04 00:51:54;;;;;;;;;;;2.80;99.50;;;;;;10486294;28;20015;-71
2021/04/04 00:56:56;;;;;;;;;;;2.70;99.90;;;;;;10479691;28;20303;-71
2021/04/04 01:01:57;;;;;;;;;;;2.60;99.90;;;;;;10485940;28;19928;-71
2021/04/04 01:06:59;;;;;;;;;;;2.50;99.90;;;;;;10486695;28;19924;-71
2021/04/04 01:12:00;;;;;;;;;;;2.50;99.90;;;;;;10485680;28;19934;-71
2021/04/04 01:17:03;;;;;;;;;;;2.50;99.90;;;;;;10485369;28;20395;-71
2021/04/04 01:22:14;;;;;;;;;;;2.50;99.90;;;;;;10485860;28;19925;-71
2021/04/04 01:27:27;;;;;;;;;;;2.40;99.90;;;;;;10485625;28;20305;-71
2021/04/04 01:32:28;;;;;;;;;;;2.30;99.90;;;;;;10485541;28;19924;-71
2021/04/04 01:37:29;;;;;;;;;;;2.30;99.90;;;;;;10493080;28;19928;-71
2021/04/04 01:42:32;;;;;;;;;;;2.30;99.90;;;;;;10493676;28;20014;-71
2021/04/04 01:47:34;;;;;;;;;;;2.20;99.90;;;;;;10492825;28;20277;-71
2021/04/04 01:52:36;;;;;;;;;;;2.20;99.90;;;;;;10493395;28;20404;-70
2021/04/04 01:57:38;;;;;;;;;;;2.20;99.90;;;;;;10490853;28;19925;-71
2021/04/04 02:02:39;;;;;;;;;;;2.20;99.90;;;;;;10491692;28;20356;-71
2021/04/04 02:07:42;;;;;;;;;;;2.10;99.90;;;;;;10492136;28;20411;-71
2021/04/04 02:12:44;;;;;;;;;;;2.10;99.90;;;;;;10492592;28;20015;-71
2021/04/04 02:17:47;;;;;;;;;;;2.00;99.90;;;;;;10492011;28;19934;-71
2021/04/04 02:22:48;;;;;;;;;;;2.00;99.90;;;;;;10492410;28;19970;-71
2021/04/04 02:27:50;;;;;;;;;;;1.90;99.90;;;;;;10491137;28;20015;-71
2021/04/04 02:32:59;;;;;;;;;;;1.80;99.90;;;;;;10490362;28;19956;-71
2021/04/04 02:38:02;;;;;;;;;;;1.80;99.90;;;;;;10491789;28;20011;-71
2021/04/04 02:43:03;;;;;;;;;;;1.70;99.90;;;;;;10490824;28;19924;-71
2021/04/04 02:48:06;;;;;;;;;;;1.70;99.90;;;;;;10490931;28;19933;-71
2021/04/04 02:53:08;;;;;;;;;;;1.80;99.90;;;;;;10490970;28;20415;-71
2021/04/04 02:58:10;;;;;;;;;;;1.70;99.90;;;;;;10488858;28;19939;-71
2021/04/04 03:03:11;;;;;;;;;;;1.70;99.90;;;;;;10490228;28;20014;-71
2021/04/04 03:08:14;;;;;;;;;;;1.80;99.90;;;;;;10464983;28;20590;-71
2021/04/04 03:13:16;;;;;;;;;;;1.80;99.90;;;;;;10488071;28;20018;-71
2021/04/04 03:18:21;;;;;;;;;;;1.80;99.90;;;;;;10488840;28;19967;-71
2021/04/04 03:23:24;;;;;;;;;;;1.90;99.90;;;;;;10490279;28;19928;-71
2021/04/04 03:28:25;;;;;;;;;;;1.90;99.90;;;;;;10488304;28;20289;-71
2021/04/04 03:33:26;;;;;;;;;;;1.80;99.90;;;;;;10488856;28;19925;-71
2021/04/04 03:38:30;;;;;;;;;;;1.90;99.90;;;;;;10488623;28;19967;-71
2021/04/04 03:43:33;;;;;;;;;;;2.10;99.90;;;;;;10463813;28;19928;-71
2021/04/04 03:48:34;;;;;;;;;;;2.20;99.90;;;;;;10489077;28;19925;-71
2021/04/04 03:53:38;;;;;;;;;;;2.30;99.90;;;;;;10486985;28;19948;-71
2021/04/04 03:58:40;;;;;;;;;;;2.30;99.90;;;;;;10487098;28;20455;-71
2021/04/04 04:03:41;;;;;;;;;;;2.30;99.90;;;;;;10487463;28;19974;-71
2021/04/04 04:08:44;;;;;;;;;;;2.40;99.90;;;;;;10488210;28;19924;-71
2021/04/04 04:13:46;;;;;;;;;;;2.60;99.90;;;;;;10487443;28;19932;-71
2021/04/04 04:18:48;;;;;;;;;;;2.80;99.90;;;;;;10487332;28;20043;-71
2021/04/04 04:23:50;;;;;;;;;;;3.00;99.90;;;;;;10487748;28;20331;-71
2021/04/04 04:28:52;;;;;;;;;;;3.20;99.90;;;;;;10486069;28;19940;-71
2021/04/04 04:33:54;;;;;;;;;;;3.20;99.90;;;;;;10487267;28;20424;-71
2021/04/04 04:38:57;;;;;;;;;;;3.20;99.90;;;;;;10486943;28;19925;-72
2021/04/04 04:44:00;;;;;;;;;;;3.20;99.90;;;;;;10485911;28;20003;-71
2021/04/04 04:49:01;;;;;;;;;;;3.30;99.90;;;;;;10486410;28;20425;-71
2021/04/04 04:54:03;;;;;;;;;;;3.20;99.90;;;;;;10486033;28;20027;-71
2021/04/04 04:59:06;;;;;;;;;;;3.30;99.90;;;;;;10485383;28;20450;-71
2021/04/04 05:04:08;;;;;;;;;;;3.30;99.90;;;;;;10485687;28;20575;-71
2021/04/04 05:09:09;;;;;;;;;;;3.50;99.90;;;;;;10486183;28;20008;-71
2021/04/04 05:14:11;;;;;;;;;;;3.60;99.90;;;;;;10486030;28;20448;-72
2021/04/04 05:19:12;;;;;;;;;;;3.60;99.90;;;;;;10485677;28;19924;-71
2021/04/04 05:24:14;;;;;;;;;;;3.60;99.90;;;;;;10485270;28;20077;-71
2021/04/04 05:29:16;;;;;;;;;;;3.60;99.90;;;;;;10485762;28;19994;-71
2021/04/04 05:34:19;;;;;;;;;;;3.70;99.90;;;;;;10485697;28;19967;-71
2021/04/04 05:39:22;;;;;;;;;;;3.70;99.90;;;;;;10485542;28;20007;-71
2021/04/04 05:44:26;;;;;;;;;;;3.70;99.90;;;;;;10484648;28;19928;-71
2021/04/04 05:49:34;;;;;;;;;;;3.90;99.90;;;;;;10485275;28;19925;-71
2021/04/04 05:54:45;;;;;;;;;;;4.10;99.90;;;;;;10484802;28;19925;-71
2021/04/04 05:59:48;;;;;;;;;;;4.30;99.90;;;;;;10484118;28;20016;-71
2021/04/04 06:04:55;;;;;;;;;;;4.30;99.90;;;;;;10484866;28;19929;-71
2021/04/04 06:09:56;;;;;;;;;;;4.40;99.90;;;;;;10485305;28;19928;-70
2021/04/04 06:15:04;;;;;;;;;;;4.60;99.90;;;;;;10484157;28;20011;-71
2021/04/04 06:20:12;;;;;;;;;;;4.70;99.90;;;;;;10484639;28;20337;-70
2021/04/04 06:25:22;;;;;;;;;;;4.90;99.90;;;;;;10491914;28;19975;-71
2021/04/04 06:36:08;;;;;;;;;;;5.40;99.90;;;;;;10491038;28;20019;-70
2021/04/04 06:41:36;;;;;;;;;;;5.70;99.90;;;;;;10461703;28;20443;-71
2021/04/04 06:46:38;;;;;;;;;;;5.90;99.90;;;;;;10464741;28;20432;-70
2021/04/04 06:51:39;;;;;;;;;;;5.70;99.90;;;;;;10489759;28;19967;-70
2021/04/04 06:56:47;;;;;;;;;;;5.80;99.90;;;;;;10490842;28;19931;-70
2021/04/04 07:01:48;;;;;;;;;;;6.10;99.90;;;;;;10482262;28;20011;-71
2021/04/04 07:06:53;;;;;;;;;;;6.00;99.90;;;;;;10488427;28;19970;-71
2021/04/04 07:11:57;;;;;;;;;;;6.10;99.90;;;;;;10487677;28;20448;-71
2021/04/04 07:17:18;;;;;;;;;;;6.10;99.90;;;;;;10476331;28;20020;-70
2021/04/04 07:22:22;;;;;;;;;;;6.30;99.90;;;;;;10441546;28;20019;-70
2021/04/04 07:27:36;;;;;;;;;;;6.80;99.90;;;;;;10506922;28;19924;-71
2021/04/04 07:32:48;;;;;;;;;;;7.10;99.90;;;;;;10478761;28;20011;-72
2021/04/04 07:37:52;;;;;;;;;;;7.00;99.30;;;;;;10473938;28;19924;-71
2021/04/04 07:43:05;;;;;;;;;;;6.80;99.90;;;;;;10481443;28;20236;-71
2021/04/04 07:48:22;;;;;;;;;;;6.80;99.90;;;;;;10477361;28;20027;-70
2021/04/04 07:53:26;;;;;;;;;;;6.80;99.90;;;;;;10487723;28;20453;-71
2021/04/04 07:58:31;;;;;;;;;;;7.40;98.00;;;;;;10486704;28;19932;-71
2021/04/04 08:03:52;;;;;;;;;;;8.30;94.30;;;;;;10519212;28;19932;-71
2021/04/04 08:08:56;;;;;;;;;;;9.10;87.10;;;;;;10476327;28;19947;-70
2021/04/04 08:14:02;;;;;;;;;;;9.10;79.60;;;;;;10485639;28;20015;-71
2021/04/04 08:19:03;;;;;;;;;;;9.10;79.20;;;;;;10479845;28;20031;-71
2021/04/04 08:24:07;;;;;;;;;;;8.90;75.90;;;;;;10484466;28;20015;-71
2021/04/04 08:29:17;;;;;;;;;;;8.90;74.60;;;;;;10479967;28;20025;-70
2021/04/04 08:34:23;;;;;;;;;;;9.20;75.10;;;;;;10486930;28;20015;-71
2021/04/04 08:39:30;;;;;;;;;;;10.10;69.90;;;;;;10475477;28;19935;-71
2021/04/04 08:44:33;;;;;;;;;;;9.60;68.30;;;;;;10467178;28;20054;-71
2021/04/04 08:49:36;;;;;;;;;;;9.30;68.00;;;;;;10483637;28;20317;-72
2021/04/04 08:54:38;;;;;;;;;;;9.30;68.10;;;;;;10482698;28;20410;-71
2021/04/04 08:59:42;;;;;;;;;;;9.50;67.40;;;;;;10482818;28;19928;-71
2021/04/04 09:04:43;;;;;;;;;;;9.30;66.20;;;;;;10484636;28;20410;-72
2021/04/04 09:09:46;;;;;;;;;;;9.30;65.40;;;;;;10484377;28;19929;-71
2021/04/04 09:14:49;;;;;;;;;;;9.10;65.20;;;;;;10484863;28;19978;-72
2021/04/04 09:19:57;;;;;;;;;;;9.10;65.50;;;;;;10485548;28;20046;-71
2021/04/04 09:25:07;;;;;;;;;;;9.10;64.50;;;;;;10486161;28;20422;-71
2021/04/04 09:30:23;;;;;;;;;;;8.80;64.80;;;;;;10485238;28;20027;-71
2021/04/04 09:35:24;;;;;;;;;;;8.70;65.50;;;;;;10486059;28;19951;-71
2021/04/04 09:40:26;;;;;;;;;;;8.90;65.20;;;;;;10485447;28;20019;-72
2021/04/04 09:45:27;;;;;;;;;;;9.00;64.70;;;;;;10482657;28;20361;-71
2021/04/04 09:50:29;;;;;;;;;;;9.10;63.20;;;;;;10483444;28;19933;-71
2021/04/04 09:55:30;;;;;;;;;;;9.40;62.40;;;;;;10484550;28;19963;-71
2021/04/04 10:00:36;;;;;;;;;;;9.40;62.40;;;;;;10497726;28;20339;-71
2021/04/04 10:05:40;;;;;;;;;;;9.40;61.40;;;;;;10509761;28;19924;-71
2021/04/04 10:10:43;;;;;;;;;;;9.60;61.40;;;;;;10472427;28;19932;-71
2021/04/04 10:15:48;;;;;;;;;;;9.40;61.00;;;;;;10488418;28;19932;-71
2021/04/04 10:20:52;;;;;;;;;;;9.50;59.80;;;;;;10484444;28;20055;-71
2021/04/04 10:26:03;;;;;;;;;;;9.70;60.10;;;;;;10488470;28;20018;-71
2021/04/04 10:31:04;;;;;;;;;;;9.50;59.20;;;;;;10486328;28;19928;-70
2021/04/04 10:36:13;;;;;;;;;;;9.50;59.90;;;;;;10488489;28;19976;-71
2021/04/04 10:41:23;;;;;;;;;;;9.30;59.60;;;;;;10488219;28;19939;-71
2021/04/04 10:46:26;;;;;;;;;;;9.30;59.40;;;;;;10472211;28;20023;-71
2021/04/04 10:51:29;;;;;;;;;;;9.70;59.10;;;;;;10489915;28;19928;-71
2021/04/04 10:56:31;;;;;;;;;;;9.90;58.10;;;;;;10488160;28;20447;-71
2021/04/04 11:01:32;;;;;;;;;;;10.00;57.50;;;;;;10488012;28;19960;-71
2021/04/04 11:06:35;;;;;;;;;;;9.90;57.50;;;;;;10487899;28;19933;-71
2021/04/04 11:11:37;;;;;;;;;;;10.00;56.70;;;;;;10478691;28;19928;-71
2021/04/04 11:16:39;;;;;;;;;;;10.20;55.60;;;;;;10486998;28;19963;-71
2021/04/04 11:21:42;;;;;;;;;;;10.20;55.60;;;;;;10487499;28;20086;-70
2021/04/04 11:26:50;;;;;;;;;;;10.30;55.40;;;;;;10486964;28;20395;-70
2021/04/04 11:31:53;;;;;;;;;;;10.40;54.30;;;;;;10478537;28;20019;-71
2021/04/04 11:36:54;;;;;;;;;;;10.40;54.40;;;;;;10483306;28;20039;-71
2021/04/04 11:41:57;;;;;;;;;;;10.50;53.50;;;;;;10482434;28;20059;-71
2021/04/04 11:47:05;;;;;;;;;;;10.60;52.80;;;;;;10481891;28;19930;-71
2021/04/04 11:52:09;;;;;;;;;;;10.40;52.90;;;;;;10488807;28;20050;-71
2021/04/04 11:57:16;;;;;;;;;;;10.10;53.00;;;;;;10487930;28;20295;-70
2021/04/04 12:02:19;;;;;;;;;;;9.90;52.70;;;;;;10486051;28;20346;-71
2021/04/04 12:07:21;;;;;;;;;;;10.20;52.80;;;;;;10487868;28;19924;-72
2021/04/04 12:12:23;;;;;;;;;;;10.40;52.40;;;;;;10486935;28;19928;-71
2021/04/04 12:17:25;;;;;;;;;;;9.80;52.80;;;;;;10486700;28;20396;-71
2021/04/04 12:22:34;;;;;;;;;;;9.90;52.80;;;;;;10485698;28;20261;-71
2021/04/04 12:27:36;;;;;;;;;;;10.20;53.10;;;;;;10486670;28;20342;-71
2021/04/04 12:32:37;;;;;;;;;;;10.60;52.50;;;;;;10487305;28;19928;-68
2021/04/04 12:37:39;;;;;;;;;;;10.70;52.60;;;;;;10486546;28;19967;-68
2021/04/04 12:42:40;;;;;;;;;;;10.40;51.60;;;;;;10478328;28;20387;-68
2021/04/04 12:47:43;;;;;;;;;;;10.30;52.50;;;;;;10480585;28;19974;-68
2021/04/04 12:52:51;;;;;;;;;;;10.10;52.60;;;;;;10489887;28;20050;-67
2021/04/04 12:57:54;;;;;;;;;;;10.10;52.90;;;;;;10490676;28;20369;-68
2021/04/04 13:02:56;;;;;;;;;;;9.60;53.10;;;;;;10483901;28;20327;-67
2021/04/04 13:07:58;;;;;;;;;;;9.60;53.70;;;;;;10484721;28;19924;-68
2021/04/04 13:13:07;;;;;;;;;;;9.90;53.80;;;;;;10485103;28;20440;-68
2021/04/04 13:18:28;;;;;;;;;;;10.10;53.30;;;;;;10477335;28;19924;-68
2021/04/04 13:23:39;;;;;;;;;;;10.30;53.10;;;;;;10477540;28;20007;-68
2021/04/04 13:28:41;;;;;;;;;;;10.40;52.60;;;;;;10485064;28;20402;-68
2021/04/04 13:33:46;;;;;;;;;;;10.40;52.50;;;;;;10494367;28;20015;-68
2021/04/04 13:38:48;;;;;;;;;;;10.40;52.80;;;;;;10492697;28;20031;-67
2021/04/04 13:43:53;;;;;;;;;;;10.30;52.80;;;;;;10493217;28;20406;-68
2021/04/04 13:48:55;;;;;;;;;;;10.10;52.70;;;;;;10490888;28;19924;-68
2021/04/04 13:54:00;;;;;;;;;;;10.10;53.10;;;;;;10487600;28;19924;-68
2021/04/04 13:59:20;;;;;;;;;;;10.10;53.50;;;;;;10490497;28;20468;-68
2021/04/04 14:04:23;;;;;;;;;;;10.20;53.70;;;;;;10491694;28;20016;-67
2021/04/04 14:09:26;;;;;;;;;;;10.00;53.60;;;;;;10491338;28;19925;-67
2021/04/04 14:14:28;;;;;;;;;;;10.10;53.70;;;;;;10491275;28;20426;-67
2021/04/04 14:19:29;;;;;;;;;;;10.20;54.00;;;;;;10491211;28;20411;-68
2021/04/04 14:24:31;;;;;;;;;;;10.30;53.60;;;;;;10490632;28;19924;-68
2021/04/04 14:29:33;;;;;;;;;;;10.20;53.90;;;;;;10490726;28;19929;-68
2021/04/04 14:34:34;;;;;;;;;;;10.50;53.50;;;;;;10491341;28;19924;-67
2021/04/04 14:39:36;;;;;;;;;;;10.70;53.70;;;;;;10489849;28;20291;-68
2021/04/04 14:44:37;;;;;;;;;;;10.80;53.40;;;;;;10489418;28;20379;-68
2021/04/04 14:49:38;;;;;;;;;;;10.50;53.40;;;;;;10490404;28;20346;-68
2021/04/04 14:54:39;;;;;;;;;;;10.20;54.50;;;;;;10489999;28;19934;-68
2021/04/04 14:59:41;;;;;;;;;;;10.30;54.30;;;;;;10488490;28;20386;-67
2021/04/04 15:04:42;;;;;;;;;;;10.30;54.30;;;;;;10488234;28;20338;-68
2021/04/04 15:09:43;;;;;;;;;;;10.30;54.60;;;;;;10489272;28;19972;-68
2021/04/04 15:14:44;;;;;;;;;;;10.10;55.20;;;;;;10490200;28;20469;-68
2021/04/04 15:19:46;;;;;;;;;;;10.20;55.20;;;;;;10490467;28;20019;-68
2021/04/04 15:24:47;;;;;;;;;;;10.00;55.30;;;;;;10491308;28;19924;-67
2021/04/04 15:29:49;;;;;;;;;;;10.10;55.60;;;;;;10488531;28;20615;-68
2021/04/04 15:34:50;;;;;;;;;;;10.10;55.20;;;;;;10488938;28;19925;-68
2021/04/04 15:39:51;;;;;;;;;;;10.00;55.90;;;;;;10486705;28;19976;-67
2021/04/04 15:44:53;;;;;;;;;;;10.10;55.70;;;;;;10486960;28;20408;-68
2021/04/04 15:49:54;;;;;;;;;;;9.90;55.80;;;;;;10486916;28;20483;-68
2021/04/04 15:54:55;;;;;;;;;;;9.80;56.40;;;;;;10488621;28;20444;-68
2021/04/04 15:59:56;;;;;;;;;;;9.90;56.70;;;;;;10486809;28;19976;-67
2021/04/04 16:04:58;;;;;;;;;;;9.80;56.90;;;;;;10487654;28;19975;-68
2021/04/04 16:09:59;;;;;;;;;;;9.80;56.80;;;;;;10488376;28;20061;-68
2021/04/04 16:15:01;;;;;;;;;;;9.80;57.30;;;;;;10486665;28;19979;-67
2021/04/04 16:20:04;;;;;;;;;;;9.70;57.50;;;;;;10487181;28;20018;-68
2021/04/04 16:25:06;;;;;;;;;;;9.60;57.90;;;;;;10486867;28;20424;-68
2021/04/04 16:30:08;;;;;;;;;;;9.80;58.50;;;;;;10486214;28;19970;-67
2021/04/04 16:35:10;;;;;;;;;;;9.80;59.20;;;;;;10487497;28;19924;-68
2021/04/04 16:40:12;;;;;;;;;;;9.60;58.60;;;;;;10486396;28;19924;-68
2021/04/04 16:45:14;;;;;;;;;;;9.40;58.90;;;;;;10485773;28;19959;-68
2021/04/04 16:50:16;;;;;;;;;;;9.30;59.00;;;;;;10484441;28;20018;-68
2021/04/04 16:55:17;;;;;;;;;;;9.40;59.40;;;;;;10484016;28;19935;-67
2021/04/04 17:00:19;;;;;;;;;;;9.50;59.20;;;;;;10483649;28;19925;-68
2021/04/04 17:05:21;;;;;;;;;;;9.30;59.50;;;;;;10483338;28;20432;-68
2021/04/04 17:10:23;;;;;;;;;;;9.10;60.20;;;;;;10480279;28;20270;-68
2021/04/04 17:15:25;;;;;;;;;;;8.90;60.40;;;;;;10483889;28;20031;-68
2021/04/04 17:20:26;;;;;;;;;;;8.60;61.30;;;;;;10485461;28;19928;-68
2021/04/04 17:25:28;;;;;;;;;;;8.50;62.10;;;;;;10487007;28;20015;-67
2021/04/04 17:30:29;;;;;;;;;;;8.30;63.40;;;;;;10482246;28;20014;-68
2021/04/04 17:35:30;;;;;;;;;;;7.90;64.00;;;;;;10473406;28;19935;-67
2021/04/04 17:40:32;;;;;;;;;;;7.80;65.10;;;;;;10457584;28;19950;-67
2021/04/04 17:45:33;;;;;;;;;;;7.60;65.80;;;;;;10482017;28;19929;-67
2021/04/04 17:50:35;;;;;;;;;;;7.50;66.90;;;;;;10482555;28;20296;-67
2021/04/04 17:55:36;;;;;;;;;;;7.20;67.80;;;;;;10480087;28;19939;-67
2021/04/04 18:00:37;;;;;;;;;;;6.90;69.70;;;;;;10481877;28;19946;-67
2021/04/04 18:16:01;;;;;;;;;;;6.60;74.80;;;;;;10472591;28;19929;-67
2021/04/04 18:21:03;;;;;;;;;;;6.20;77.20;;;;;;10490927;28;19925;-67
2021/04/04 18:26:05;;;;;;;;;;;6.20;79.10;;;;;;10489326;28;19935;-68
2021/04/04 18:31:06;;;;;;;;;;;6.20;80.90;;;;;;10462370;28;19925;-67
2021/04/04 18:36:08;;;;;;;;;;;6.10;82.70;;;;;;10462912;28;20063;-67
2021/04/04 18:41:10;;;;;;;;;;;6.00;84.20;;;;;;10458137;28;19925;-67
2021/04/04 18:46:11;;;;;;;;;;;5.90;87.00;;;;;;10482179;28;19932;-67
2021/04/04 18:51:12;;;;;;;;;;;5.80;89.70;;;;;;10488162;28;19928;-67
2021/04/04 18:56:14;;;;;;;;;;;5.60;91.40;;;;;;10521433;28;19943;-67
2021/04/04 19:01:15;;;;;;;;;;;5.50;93.00;;;;;;10466570;28;19960;-67
2021/04/04 19:06:17;;;;;;;;;;;5.40;95.40;;;;;;10487735;28;19978;-67
2021/04/04 19:11:23;;;;;;;;;;;5.50;95.80;;;;;;10488118;28;19982;-67
2021/04/04 19:16:25;;;;;;;;;;;5.50;96.00;;;;;;10488249;28;20368;-67
2021/04/04 19:21:27;;;;;;;;;;;5.50;96.00;;;;;;10488712;28;19978;-67
2021/04/04 19:26:29;;;;;;;;;;;5.40;96.90;;;;;;10488921;28;19972;-67
2021/04/04 19:31:30;;;;;;;;;;;5.50;96.90;;;;;;10487012;28;20311;-67
2021/04/04 19:36:31;;;;;;;;;;;5.40;97.90;;;;;;10478267;28;19924;-67
2021/04/04 19:41:33;;;;;;;;;;;5.30;98.10;;;;;;10470168;28;20022;-67
2021/04/04 19:46:34;;;;;;;;;;;5.30;98.70;;;;;;10487444;28;20261;-67
2021/04/04 19:51:38;;;;;;;;;;;5.30;98.90;;;;;;10487974;28;19932;-67
2021/04/04 19:56:39;;;;;;;;;;;5.10;99.40;;;;;;10488114;28;20223;-67
2021/04/04 20:01:41;;;;;;;;;;;4.90;99.90;;;;;;10481685;28;19931;-67
2021/04/04 20:06:43;;;;;;;;;;;4.70;99.90;;;;;;10474324;28;19958;-67
2021/04/04 20:11:44;;;;;;;;;;;4.60;99.90;;;;;;10503320;28;19925;-68
2021/04/04 20:16:46;;;;;;;;;;;4.80;99.90;;;;;;10485294;28;20398;-68
2021/04/04 20:21:48;;;;;;;;;;;4.70;99.90;;;;;;10484915;28;19932;-67
2021/04/04 20:26:51;;;;;;;;;;;4.60;99.90;;;;;;10487354;28;19925;-68
2021/04/04 20:31:53;;;;;;;;;;;4.40;99.90;;;;;;10485938;28;19947;-68
2021/04/04 20:36:54;;;;;;;;;;;4.30;99.90;;;;;;10487195;28;20019;-67
2021/04/04 20:41:56;;;;;;;;;;;4.20;99.90;;;;;;10484446;28;20444;-67
2021/04/04 20:46:57;;;;;;;;;;;4.20;99.90;;;;;;10485048;28;19928;-68
2021/04/04 20:51:59;;;;;;;;;;;4.20;99.90;;;;;;10486329;28;19931;-67
2021/04/04 20:57:00;;;;;;;;;;;4.00;99.90;;;;;;10486019;28;19924;-67
2021/04/04 21:02:04;;;;;;;;;;;3.80;99.90;;;;;;10484850;28;22052;-67
2021/04/04 21:07:05;;;;;;;;;;;3.70;99.90;;;;;;10486355;28;20007;-67
2021/04/04 21:12:07;;;;;;;;;;;3.50;99.90;;;;;;10484430;28;20331;-68
2021/04/04 21:17:08;;;;;;;;;;;3.40;99.90;;;;;;10485976;28;20043;-67
2021/04/04 21:22:10;;;;;;;;;;;3.40;99.90;;;;;;10485785;28;20091;-67
2021/04/04 21:27:12;;;;;;;;;;;3.40;99.90;;;;;;10484708;28;20405;-67
2021/04/04 21:32:13;;;;;;;;;;;3.30;99.90;;;;;;10485924;28;20011;-67
2021/04/04 21:37:15;;;;;;;;;;;3.30;99.90;;;;;;10485734;28;19924;-68
2021/04/04 21:42:16;;;;;;;;;;;3.20;99.90;;;;;;10485057;28;20019;-67
2021/04/04 21:47:17;;;;;;;;;;;3.00;99.90;;;;;;10483190;28;20011;-67
2021/04/04 21:52:18;;;;;;;;;;;2.90;99.90;;;;;;10488635;28;19924;-67
2021/04/04 21:57:20;;;;;;;;;;;3.00;99.90;;;;;;10493168;28;20605;-67
2021/04/04 22:02:21;;;;;;;;;;;3.00;99.90;;;;;;10492235;28;20024;-67
2021/04/04 22:07:22;;;;;;;;;;;3.00;99.90;;;;;;10490955;28;20011;-68
2021/04/04 22:12:26;;;;;;;;;;;2.90;99.90;;;;;;10492060;28;20364;-67
2021/04/04 22:17:30;;;;;;;;;;;2.80;99.90;;;;;;10491977;28;20337;-67
2021/04/04 22:22:31;;;;;;;;;;;2.80;99.90;;;;;;10492218;28;19971;-67
2021/04/04 22:27:33;;;;;;;;;;;2.80;99.90;;;;;;10490451;28;19928;-67
2021/04/04 22:32:34;;;;;;;;;;;2.70;99.90;;;;;;10491673;28;20372;-67
2021/04/04 22:37:35;;;;;;;;;;;2.70;99.90;;;;;;10491579;28;20398;-68
2021/04/04 22:42:37;;;;;;;;;;;2.70;99.90;;;;;;10491606;28;20116;-67
2021/04/04 22:47:38;;;;;;;;;;;2.70;99.90;;;;;;10490052;28;19931;-67
2021/04/04 22:52:40;;;;;;;;;;;2.60;99.90;;;;;;10489298;28;19983;-67
2021/04/04 22:57:41;;;;;;;;;;;2.50;99.90;;;;;;10490791;28;20337;-68
2021/04/04 23:02:44;;;;;;;;;;;2.40;99.90;;;;;;10489626;28;19950;-67
2021/04/04 23:07:46;;;;;;;;;;;2.30;99.90;;;;;;10490492;28;20427;-67
2021/04/04 23:12:51;;;;;;;;;;;2.40;99.90;;;;;;10490819;28;20040;-67
2021/04/04 23:17:52;;;;;;;;;;;2.30;99.90;;;;;;10489842;28;20408;-68
2021/04/04 23:22:54;;;;;;;;;;;2.00;99.90;;;;;;10489401;28;19935;-67
2021/04/04 23:27:55;;;;;;;;;;;1.90;99.90;;;;;;10489608;28;20163;-68
2021/04/04 23:32:57;;;;;;;;;;;2.00;99.90;;;;;;10488366;28;20513;-68
2021/04/04 23:37:58;;;;;;;;;;;2.10;99.90;;;;;;10487479;28;19932;-68
2021/04/04 23:42:59;;;;;;;;;;;2.10;99.90;;;;;;10488968;28;20019;-67
2021/04/04 23:48:00;;;;;;;;;;;2.10;99.90;;;;;;10488352;28;20015;-67
2021/04/04 23:53:02;;;;;;;;;;;2.20;99.90;;;;;;10488774;28;20019;-67
2021/04/04 23:58:04;;;;;;;;;;;2.20;99.90;;;;;;10488234;28;19928;-67
